Time;durP1;ratioP1;P1;durP2;ratioP2;P2;SDS_P1;SDS_P2;PMS_P1;PMS_P2;Temp;Humidity;BMP_temperature;BMP_pressure;BME280_temperature;BME280_humidity;BME280_pressure;Samples;Min_cycle;Max_cycle;Signal;HPM_P1;HPM_P2
2023/02/05 00:11:37;;;;;;;11.70;7.00;;;;;;;;;;4870227;24;19938;-74
2023/02/05 00:14:09;;;;;;;8.10;4.13;;;;;;;;;;4730894;30;20068;-73
2023/02/05 00:16:39;;;;;;;8.90;5.28;;;;;;;;;;4730939;30;20056;-74
2023/02/05 00:19:09;;;;;;;8.40;3.08;;;;;;;;;;4729975;30;20060;-73
2023/02/05 00:21:40;;;;;;;11.55;5.78;;;;;;;;;;4730401;30;20056;-74
2023/02/05 00:24:11;;;;;;;9.40;4.30;;;;;;;;;;4730310;30;20061;-75
2023/02/05 00:26:41;;;;;;;9.60;3.75;;;;;;;;;;4731050;30;20083;-74
2023/02/05 00:29:11;;;;;;;8.93;4.70;;;;;;;;;;4729736;30;20083;-74
2023/02/05 00:31:42;;;;;;;11.20;5.32;;;;;;;;;;4730400;30;20044;-74
2023/02/05 00:34:14;;;;;;;8.07;3.60;;;;;;;;;;4730611;30;20535;-75
2023/02/05 00:36:44;;;;;;;14.52;5.95;;;;;;;;;;4715149;30;20060;-74
2023/02/05 00:39:14;;;;;;;19.17;7.43;;;;;;;;;;4733702;30;20059;-75
2023/02/05 00:41:46;;;;;;;9.07;3.58;;;;;;;;;;4730175;30;20060;-74
2023/02/05 00:44:17;;;;;;;4.30;2.50;;;;;;;;;;4745646;30;20555;-74
2023/02/05 00:46:49;;;;;;;8.65;2.83;;;;;;;;;;4730676;30;20075;-73
2023/02/05 00:49:19;;;;;;;10.45;3.15;;;;;;;;;;4747456;30;20097;-73
2023/02/05 00:51:49;;;;;;;8.27;2.30;;;;;;;;;;4730587;30;20413;-73
2023/02/05 00:54:19;;;;;;;8.55;2.63;;;;;;;;;;4747340;30;20062;-73
2023/02/05 00:56:50;;;;;;;5.47;2.70;;;;;;;;;;4747909;30;20056;-73
2023/02/05 00:59:21;;;;;;;4.47;2.10;;;;;;;;;;4731161;30;20562;-74
2023/02/05 01:01:52;;;;;;;8.13;3.38;;;;;;;;;;4748356;30;20060;-75
2023/02/05 01:04:21;;;;;;;7.45;3.65;;;;;;;;;;4748095;30;20063;-73
2023/02/05 01:06:52;;;;;;;13.90;5.68;;;;;;;;;;4747418;30;20512;-73
2023/02/05 01:09:23;;;;;;;10.23;5.88;;;;;;;;;;4730936;30;20063;-74
2023/02/05 01:11:55;;;;;;;14.98;6.65;;;;;;;;;;4722617;30;20536;-73
2023/02/05 01:14:25;;;;;;;13.98;7.28;;;;;;;;;;4746462;30;20068;-73
2023/02/05 01:16:55;;;;;;;13.68;9.00;;;;;;;;;;4747482;30;20048;-74
2023/02/05 01:19:26;;;;;;;12.05;5.65;;;;;;;;;;4747451;30;20052;-73
2023/02/05 01:21:58;;;;;;;8.52;4.47;;;;;;;;;;4747528;30;20056;-73
2023/02/05 01:24:30;;;;;;;10.88;3.75;;;;;;;;;;4747518;30;20083;-73
2023/02/05 01:27:00;;;;;;;22.13;6.32;;;;;;;;;;4731167;30;20067;-73
2023/02/05 01:29:30;;;;;;;14.50;5.50;;;;;;;;;;4731396;30;20064;-75
2023/02/05 01:32:02;;;;;;;17.08;4.78;;;;;;;;;;4746863;30;20508;-74
2023/02/05 01:34:34;;;;;;;12.82;4.35;;;;;;;;;;4747538;30;20543;-73
2023/02/05 01:37:04;;;;;;;6.88;3.55;;;;;;;;;;4747162;30;20044;-74
2023/02/05 01:39:36;;;;;;;16.10;4.05;;;;;;;;;;4731216;30;20071;-74
2023/02/05 01:42:15;;;;;;;9.18;3.55;;;;;;;;;;4746496;30;20056;-74
2023/02/05 01:45:35;;;;;;;12.57;3.20;;;;;;;;;;4730876;30;20073;-74
2023/02/05 01:48:08;;;;;;;9.48;2.85;;;;;;;;;;4718008;30;20079;-73
2023/02/05 01:50:52;;;;;;;12.00;2.60;;;;;;;;;;4730307;30;20063;-74
2023/02/05 01:53:27;;;;;;;5.38;2.70;;;;;;;;;;4747157;30;20056;-76
2023/02/05 01:56:25;;;;;;;6.45;2.70;;;;;;;;;;4746914;30;20481;-73
2023/02/05 01:59:01;;;;;;;9.18;2.58;;;;;;;;;;4730405;30;20432;-73
2023/02/05 02:01:32;;;;;;;8.98;2.63;;;;;;;;;;4730080;30;20060;-73
2023/02/05 02:04:03;;;;;;;5.63;2.70;;;;;;;;;;4746522;30;20056;-74
2023/02/05 02:06:37;;;;;;;6.22;3.08;;;;;;;;;;4746656;30;20416;-74
2023/02/05 02:09:08;;;;;;;12.82;2.60;;;;;;;;;;4729790;30;20756;-76
2023/02/05 02:11:42;;;;;;;6.68;2.97;;;;;;;;;;4738609;30;20057;-74
2023/02/05 02:14:14;;;;;;;8.13;2.78;;;;;;;;;;4712414;30;20064;-74
2023/02/05 02:16:46;;;;;;;6.05;2.72;;;;;;;;;;4728970;30;20070;-75
2023/02/05 02:19:31;;;;;;;7.30;2.80;;;;;;;;;;4729058;30;20500;-73
2023/02/05 02:22:14;;;;;;;9.25;3.30;;;;;;;;;;4712313;30;20412;-73
2023/02/05 02:25:03;;;;;;;9.23;2.92;;;;;;;;;;4729335;30;20052;-73
2023/02/05 02:27:59;;;;;;;6.55;2.42;;;;;;;;;;4711812;30;20525;-74
2023/02/05 02:30:38;;;;;;;5.53;2.65;;;;;;;;;;4720767;30;20053;-75
2023/02/05 02:33:25;;;;;;;9.00;2.97;;;;;;;;;;4721168;30;20056;-75
2023/02/05 02:36:17;;;;;;;10.25;2.90;;;;;;;;;;4720483;30;20524;-74
2023/02/05 02:39:07;;;;;;;9.32;3.42;;;;;;;;;;4700159;30;20471;-74
2023/02/05 02:41:47;;;;;;;11.30;3.22;;;;;;;;;;4712019;30;20049;-74
2023/02/05 02:44:47;;;;;;;19.05;3.53;;;;;;;;;;4710275;30;20211;-75
2023/02/05 02:47:27;;;;;;;7.63;3.60;;;;;;;;;;4711607;30;20502;-74
2023/02/05 02:50:03;;;;;;;11.52;4.18;;;;;;;;;;4711713;30;20052;-74
2023/02/05 02:52:37;;;;;;;8.88;3.75;;;;;;;;;;4713252;30;20501;-74
2023/02/05 02:55:12;;;;;;;11.32;4.15;;;;;;;;;;4715057;30;20065;-74
2023/02/05 02:57:48;;;;;;;13.32;3.80;;;;;;;;;;4699100;30;20064;-73
2023/02/05 03:00:26;;;;;;;9.18;3.35;;;;;;;;;;4698259;30;20078;-74
2023/02/05 03:03:01;;;;;;;9.07;3.00;;;;;;;;;;4714435;30;20061;-74
2023/02/05 03:05:34;;;;;;;9.38;3.53;;;;;;;;;;4698829;30;20064;-74
2023/02/05 03:08:17;;;;;;;14.93;3.10;;;;;;;;;;4699521;30;20052;-74
2023/02/05 03:10:55;;;;;;;6.35;2.63;;;;;;;;;;4715863;30;20064;-74
2023/02/05 03:13:26;;;;;;;9.45;2.88;;;;;;;;;;4715745;30;20061;-74
2023/02/05 03:16:00;;;;;;;8.90;3.05;;;;;;;;;;4715092;30;20064;-74
2023/02/05 03:18:31;;;;;;;4.68;2.20;;;;;;;;;;4716037;30;20084;-77
2023/02/05 03:21:20;;;;;;;9.27;2.72;;;;;;;;;;4715683;30;20061;-74
2023/02/05 03:23:50;;;;;;;7.15;2.55;;;;;;;;;;4716076;30;20539;-74
2023/02/05 03:26:30;;;;;;;11.15;3.10;;;;;;;;;;4716422;30;20061;-74
2023/02/05 03:29:15;;;;;;;9.00;2.90;;;;;;;;;;4715628;30;20061;-74
2023/02/05 03:32:06;;;;;;;11.55;2.80;;;;;;;;;;4716007;30;20517;-74
2023/02/05 03:34:54;;;;;;;7.55;2.88;;;;;;;;;;4715182;30;20060;-74
2023/02/05 03:37:25;;;;;;;12.02;2.83;;;;;;;;;;4731262;30;20067;-74
2023/02/05 03:40:33;;;;;;;13.65;2.90;;;;;;;;;;4715380;30;20072;-74
2023/02/05 03:43:29;;;;;;;8.95;2.13;;;;;;;;;;4715306;30;20061;-74
2023/02/05 03:46:01;;;;;;;6.22;1.90;;;;;;;;;;4714603;30;20056;-75
2023/02/05 03:49:30;;;;;;;8.45;2.35;;;;;;;;;;4714808;30;20053;-74
2023/02/05 03:52:15;;;;;;;9.77;2.55;;;;;;;;;;4698402;30;20057;-74
2023/02/05 03:54:59;;;;;;;8.32;2.65;;;;;;;;;;4731648;30;20056;-74
2023/02/05 03:57:58;;;;;;;11.25;2.60;;;;;;;;;;4715163;30;20061;-74
2023/02/05 04:00:30;;;;;;;5.85;1.90;;;;;;;;;;4688124;30;20065;-74
2023/02/05 04:03:03;;;;;;;5.38;2.22;;;;;;;;;;4714952;30;20075;-74
2023/02/05 04:05:35;;;;;;;7.15;1.90;;;;;;;;;;4714789;30;20068;-74
2023/02/05 04:08:06;;;;;;;10.75;2.10;;;;;;;;;;4715397;30;20077;-75
2023/02/05 04:10:44;;;;;;;12.90;3.10;;;;;;;;;;4714137;30;20060;-74
2023/02/05 04:13:14;;;;;;;5.75;2.08;;;;;;;;;;4714943;30;20068;-74
2023/02/05 04:15:49;;;;;;;7.85;1.83;;;;;;;;;;4714896;30;20535;-74
2023/02/05 04:18:20;;;;;;;7.00;3.15;;;;;;;;;;4714652;30;20064;-74
2023/02/05 04:20:51;;;;;;;8.73;2.80;;;;;;;;;;4715240;30;20068;-74
2023/02/05 04:23:25;;;;;;;10.15;2.58;;;;;;;;;;4715481;30;20758;-75
2023/02/05 04:25:56;;;;;;;6.40;2.33;;;;;;;;;;4730903;30;20394;-74
2023/02/05 04:28:35;;;;;;;14.90;2.95;;;;;;;;;;4714383;30;20056;-74
2023/02/05 04:31:11;;;;;;;5.18;2.42;;;;;;;;;;4714239;30;20068;-74
2023/02/05 04:33:47;;;;;;;7.97;2.60;;;;;;;;;;4714638;30;20441;-74
2023/02/05 04:36:19;;;;;;;8.55;2.55;;;;;;;;;;4714426;30;20052;-75
2023/02/05 04:38:49;;;;;;;5.18;2.25;;;;;;;;;;4730382;30;20064;-74
2023/02/05 04:41:21;;;;;;;3.60;2.35;;;;;;;;;;4700753;30;20065;-74
2023/02/05 04:43:52;;;;;;;10.25;2.60;;;;;;;;;;4730173;30;20079;-74
2023/02/05 04:46:22;;;;;;;9.00;2.35;;;;;;;;;;4730428;30;20060;-74
2023/02/05 04:48:52;;;;;;;5.68;2.22;;;;;;;;;;4730908;30;20421;-74
2023/02/05 04:51:24;;;;;;;5.93;2.20;;;;;;;;;;4714624;30;20064;-74
2023/02/05 04:53:55;;;;;;;7.97;2.55;;;;;;;;;;4729897;30;20067;-74
2023/02/05 04:56:24;;;;;;;12.35;2.25;;;;;;;;;;4730102;30;20509;-74
2023/02/05 04:58:55;;;;;;;5.28;1.90;;;;;;;;;;4730589;30;20052;-74
2023/02/05 05:01:25;;;;;;;13.90;2.63;;;;;;;;;;4729849;30;20754;-74
2023/02/05 05:03:57;;;;;;;9.20;2.00;;;;;;;;;;4730151;30;20052;-74
2023/02/05 05:06:28;;;;;;;11.70;2.58;;;;;;;;;;4714657;30;20060;-74
2023/02/05 05:08:58;;;;;;;6.10;2.05;;;;;;;;;;4730072;30;20057;-75
2023/02/05 05:11:29;;;;;;;5.57;2.35;;;;;;;;;;4729538;30;20064;-74
2023/02/05 05:14:00;;;;;;;8.27;2.60;;;;;;;;;;4730089;30;20056;-74
2023/02/05 05:16:30;;;;;;;12.90;2.40;;;;;;;;;;4713790;30;20089;-74
2023/02/05 05:19:00;;;;;;;16.20;3.08;;;;;;;;;;4729301;30;20111;-75
2023/02/05 05:21:31;;;;;;;5.10;2.22;;;;;;;;;;4729809;30;21271;-74
2023/02/05 05:24:01;;;;;;;4.00;2.10;;;;;;;;;;4729471;30;20063;-74
2023/02/05 05:26:32;;;;;;;6.88;2.40;;;;;;;;;;4729610;30;20048;-73
2023/02/05 05:29:02;;;;;;;7.22;2.05;;;;;;;;;;4729717;30;20615;-74
2023/02/05 05:31:32;;;;;;;12.55;2.53;;;;;;;;;;4729845;30;20078;-74
2023/02/05 05:34:02;;;;;;;5.40;2.40;;;;;;;;;;4729933;30;20055;-74
2023/02/05 05:36:32;;;;;;;7.55;3.03;;;;;;;;;;4729818;30;20067;-74
2023/02/05 05:44:41;;;;;;;7.82;2.70;;;;;;;;;;4729365;30;20064;-74
2023/02/05 05:47:11;;;;;;;9.52;3.03;;;;;;;;;;4729299;30;20060;-74
2023/02/05 05:49:42;;;;;;;6.00;2.30;;;;;;;;;;4729483;30;20055;-74
2023/02/05 05:52:13;;;;;;;12.32;2.30;;;;;;;;;;4729976;30;20064;-74
2023/02/05 05:54:44;;;;;;;10.10;2.38;;;;;;;;;;4729598;30;20064;-74
2023/02/05 05:57:13;;;;;;;7.82;2.55;;;;;;;;;;4729004;30;20048;-73
2023/02/05 05:59:44;;;;;;;6.95;2.83;;;;;;;;;;4729386;30;20060;-74
2023/02/05 06:02:14;;;;;;;4.07;2.28;;;;;;;;;;4729504;30;20052;-74
2023/02/05 06:04:46;;;;;;;10.07;2.40;;;;;;;;;;4713510;30;20065;-75
2023/02/05 06:07:17;;;;;;;11.20;2.58;;;;;;;;;;4729426;30;20053;-73
2023/02/05 06:09:46;;;;;;;9.63;2.72;;;;;;;;;;4713814;30;20056;-74
2023/02/05 06:12:17;;;;;;;8.52;2.38;;;;;;;;;;4712662;30;20077;-73
2023/02/05 06:14:47;;;;;;;7.13;2.35;;;;;;;;;;4713192;30;20539;-74
2023/02/05 06:17:17;;;;;;;10.50;3.20;;;;;;;;;;4728628;30;20052;-74
2023/02/05 06:19:47;;;;;;;9.43;2.65;;;;;;;;;;4729355;30;20405;-74
2023/02/05 06:22:18;;;;;;;5.55;2.55;;;;;;;;;;4728443;30;20041;-73
2023/02/05 06:24:47;;;;;;;3.67;1.98;;;;;;;;;;4713379;30;20055;-74
2023/02/05 06:27:18;;;;;;;8.88;2.25;;;;;;;;;;4728682;30;20057;-73
2023/02/05 06:29:48;;;;;;;7.60;2.78;;;;;;;;;;4729605;30;20052;-74
2023/02/05 06:32:21;;;;;;;10.60;2.53;;;;;;;;;;4729044;30;20075;-74
2023/02/05 06:34:55;;;;;;;8.68;2.80;;;;;;;;;;4728818;30;20501;-74
2023/02/05 06:37:27;;;;;;;10.25;2.40;;;;;;;;;;4728504;30;20084;-74
2023/02/05 06:40:16;;;;;;;7.32;2.50;;;;;;;;;;4728483;30;20520;-74
2023/02/05 06:42:48;;;;;;;5.78;2.50;;;;;;;;;;4728838;30;20501;-73
2023/02/05 06:45:19;;;;;;;5.78;2.47;;;;;;;;;;4728791;30;20061;-74
2023/02/05 06:47:52;;;;;;;8.73;2.97;;;;;;;;;;4728687;30;20122;-74
2023/02/05 06:50:23;;;;;;;10.07;3.00;;;;;;;;;;4728363;30;20052;-75
2023/02/05 06:52:54;;;;;;;7.10;2.17;;;;;;;;;;4728455;30;20060;-73
2023/02/05 06:55:25;;;;;;;7.53;2.88;;;;;;;;;;4728911;30;20053;-73
2023/02/05 06:57:56;;;;;;;10.25;2.83;;;;;;;;;;4728890;30;20049;-73
2023/02/05 07:00:26;;;;;;;10.40;2.40;;;;;;;;;;4728141;30;20655;-73
2023/02/05 07:03:00;;;;;;;5.95;2.08;;;;;;;;;;4728487;30;20048;-73
2023/02/05 07:05:30;;;;;;;7.93;2.83;;;;;;;;;;4728165;30;20044;-73
2023/02/05 07:08:03;;;;;;;5.28;2.17;;;;;;;;;;4728303;30;20528;-74
2023/02/05 07:10:34;;;;;;;4.28;2.10;;;;;;;;;;4728671;30;20528;-73
2023/02/05 07:13:07;;;;;;;8.52;2.50;;;;;;;;;;4728852;30;20056;-73
2023/02/05 07:15:37;;;;;;;5.80;2.40;;;;;;;;;;4728075;30;20056;-74
2023/02/05 07:18:07;;;;;;;6.38;2.55;;;;;;;;;;4728431;30;20063;-74
2023/02/05 07:20:37;;;;;;;8.20;2.30;;;;;;;;;;4728397;30;20057;-74
2023/02/05 07:23:08;;;;;;;5.82;2.03;;;;;;;;;;4728558;30;20049;-74
2023/02/05 07:25:40;;;;;;;12.30;2.13;;;;;;;;;;4728778;30;20059;-74
2023/02/05 07:28:13;;;;;;;13.43;2.67;;;;;;;;;;4728050;30;20060;-73
2023/02/05 07:30:42;;;;;;;7.43;2.00;;;;;;;;;;4728106;30;20061;-74
2023/02/05 07:33:13;;;;;;;8.02;1.83;;;;;;;;;;4728741;30;20056;-74
2023/02/05 07:35:43;;;;;;;9.93;2.30;;;;;;;;;;4728337;30;20056;-74
2023/02/05 07:38:13;;;;;;;6.00;2.75;;;;;;;;;;4728459;30;20443;-74
2023/02/05 07:40:44;;;;;;;7.03;2.42;;;;;;;;;;4731064;30;20045;-73
2023/02/05 07:43:14;;;;;;;12.65;2.53;;;;;;;;;;4731411;30;20111;-73
2023/02/05 07:45:44;;;;;;;5.78;1.98;;;;;;;;;;4716156;30;20095;-73
2023/02/05 07:48:15;;;;;;;8.75;1.88;;;;;;;;;;4731712;30;20508;-74
2023/02/05 07:50:45;;;;;;;9.27;2.47;;;;;;;;;;4731398;30;20064;-74
2023/02/05 07:53:16;;;;;;;6.97;1.95;;;;;;;;;;4731144;30;20426;-73
2023/02/05 07:55:45;;;;;;;7.45;2.03;;;;;;;;;;4731749;30;20473;-73
2023/02/05 07:58:16;;;;;;;11.52;2.00;;;;;;;;;;4731058;30;20064;-74
2023/02/05 08:00:47;;;;;;;6.97;1.98;;;;;;;;;;4730903;30;20549;-74
2023/02/05 08:03:18;;;;;;;5.70;2.00;;;;;;;;;;4730403;30;20074;-74
2023/02/05 08:05:50;;;;;;;7.47;2.05;;;;;;;;;;4730913;30;20538;-73
2023/02/05 08:08:21;;;;;;;6.13;2.15;;;;;;;;;;4731187;30;20052;-73
2023/02/05 08:10:59;;;;;;;6.57;1.75;;;;;;;;;;4715082;30;20498;-74
2023/02/05 08:13:31;;;;;;;8.73;2.00;;;;;;;;;;4731113;30;20053;-74
2023/02/05 08:16:06;;;;;;;9.80;2.28;;;;;;;;;;4730578;30;20056;-74
2023/02/05 08:18:36;;;;;;;4.90;1.52;;;;;;;;;;4730934;30;20060;-74
2023/02/05 08:21:07;;;;;;;7.50;1.98;;;;;;;;;;4715343;30;20060;-74
2023/02/05 08:23:37;;;;;;;5.25;1.60;;;;;;;;;;4730632;30;20501;-74
2023/02/05 08:26:07;;;;;;;7.70;2.05;;;;;;;;;;4731040;30;20056;-74
2023/02/05 08:28:38;;;;;;;8.65;1.70;;;;;;;;;;4730188;30;20060;-73
2023/02/05 08:31:14;;;;;;;3.85;1.80;;;;;;;;;;4730979;30;20084;-74
2023/02/05 08:33:46;;;;;;;4.78;1.48;;;;;;;;;;4730889;30;20060;-73
2023/02/05 08:36:17;;;;;;;5.97;1.80;;;;;;;;;;4731014;30;20048;-73
2023/02/05 08:38:48;;;;;;;4.10;1.73;;;;;;;;;;4730425;30;20056;-73
2023/02/05 08:41:18;;;;;;;6.85;1.48;;;;;;;;;;4730025;30;20056;-73
2023/02/05 08:43:50;;;;;;;7.20;1.77;;;;;;;;;;4730741;30;20060;-73
2023/02/05 08:46:24;;;;;;;4.38;1.75;;;;;;;;;;4730181;30;20053;-73
2023/02/05 08:49:11;;;;;;;5.97;1.45;;;;;;;;;;4730019;30;20059;-73
2023/02/05 08:51:42;;;;;;;5.15;2.10;;;;;;;;;;4730010;30;20417;-74
2023/02/05 08:54:14;;;;;;;6.82;1.85;;;;;;;;;;4730319;30;20505;-74
2023/02/05 08:56:49;;;;;;;8.13;2.08;;;;;;;;;;4730447;30;20529;-73
2023/02/05 08:59:20;;;;;;;7.20;1.55;;;;;;;;;;4730792;30;20410;-74
2023/02/05 09:01:50;;;;;;;8.85;1.98;;;;;;;;;;4730730;30;20055;-74
2023/02/05 09:04:24;;;;;;;12.00;1.67;;;;;;;;;;4730290;30;20421;-74
2023/02/05 09:06:56;;;;;;;4.30;1.65;;;;;;;;;;4730724;30;20052;-74
2023/02/05 09:09:26;;;;;;;4.57;1.60;;;;;;;;;;4730186;30;20084;-74
2023/02/05 09:11:57;;;;;;;5.07;1.90;;;;;;;;;;4730200;30;20501;-74
2023/02/05 09:14:34;;;;;;;2.78;1.40;;;;;;;;;;4729722;30;20534;-73
2023/02/05 09:17:08;;;;;;;6.32;1.60;;;;;;;;;;4729731;30;20052;-74
2023/02/05 09:19:39;;;;;;;5.20;1.63;;;;;;;;;;4729771;30;20060;-74
2023/02/05 09:22:10;;;;;;;9.60;1.98;;;;;;;;;;4729699;30;20060;-74
2023/02/05 09:24:42;;;;;;;8.43;1.95;;;;;;;;;;4730213;30;20056;-74
2023/02/05 09:27:13;;;;;;;10.43;2.03;;;;;;;;;;4729175;30;20474;-74
2023/02/05 09:29:44;;;;;;;9.18;1.60;;;;;;;;;;4729555;30;20044;-74
2023/02/05 09:32:14;;;;;;;7.38;2.25;;;;;;;;;;4729456;30;20060;-73
2023/02/05 09:34:45;;;;;;;11.55;2.10;;;;;;;;;;4729472;30;20056;-74
2023/02/05 09:37:16;;;;;;;6.75;1.85;;;;;;;;;;4729424;30;20059;-75
2023/02/05 09:39:46;;;;;;;7.13;2.10;;;;;;;;;;4729891;30;20076;-76
2023/02/05 09:42:47;;;;;;;12.70;2.00;;;;;;;;;;4729250;30;20061;-75
2023/02/05 09:45:36;;;;;;;5.32;1.80;;;;;;;;;;4729417;30;20056;-75
2023/02/05 09:48:29;;;;;;;7.35;2.10;;;;;;;;;;4729904;30;20056;-76
2023/02/05 09:51:00;;;;;;;5.97;2.28;;;;;;;;;;4713076;30;20569;-76
2023/02/05 09:53:40;;;;;;;5.00;2.00;;;;;;;;;;4729108;30;20766;-74
2023/02/05 09:56:13;;;;;;;9.18;1.88;;;;;;;;;;4728987;30;20052;-75
2023/02/05 09:58:48;;;;;;;8.85;1.80;;;;;;;;;;4729204;30;20052;-76
2023/02/05 10:01:33;;;;;;;7.45;2.00;;;;;;;;;;4728834;30;20059;-75
2023/02/05 10:04:06;;;;;;;4.88;1.73;;;;;;;;;;4728866;30;20053;-75
2023/02/05 10:06:52;;;;;;;4.72;1.45;;;;;;;;;;4729124;30;20064;-75
2023/02/05 10:09:56;;;;;;;7.13;1.70;;;;;;;;;;4728985;30;20061;-75
2023/02/05 10:12:29;;;;;;;5.22;1.55;;;;;;;;;;4729411;30;20056;-76
2023/02/05 10:15:15;;;;;;;6.18;1.40;;;;;;;;;;4712954;30;20060;-75
2023/02/05 10:18:14;;;;;;;5.75;1.40;;;;;;;;;;4729098;30;20053;-75
2023/02/05 10:21:09;;;;;;;7.70;1.63;;;;;;;;;;4712449;30;20571;-75
2023/02/05 10:23:49;;;;;;;6.65;1.77;;;;;;;;;;4712397;30;20064;-75
2023/02/05 10:26:23;;;;;;;6.53;1.90;;;;;;;;;;4729256;30;20063;-76
2023/02/05 10:29:20;;;;;;;8.98;1.70;;;;;;;;;;4728703;30;20517;-75
2023/02/05 10:32:14;;;;;;;6.20;1.65;;;;;;;;;;4729082;30;20071;-75
2023/02/05 10:35:06;;;;;;;7.13;1.60;;;;;;;;;;4729052;30;20143;-75
2023/02/05 10:37:54;;;;;;;9.05;3.03;;;;;;;;;;4713227;30;20161;-78
2023/02/05 10:40:38;;;;;;;6.20;1.50;;;;;;;;;;4729015;30;20060;-75
2023/02/05 10:43:28;;;;;;;10.85;1.70;;;;;;;;;;4728619;30;20072;-75
2023/02/05 10:46:00;;;;;;;5.93;1.40;;;;;;;;;;4728336;30;20049;-77
2023/02/05 10:48:48;;;;;;;5.05;1.02;;;;;;;;;;4729421;30;20510;-75
2023/02/05 10:51:37;;;;;;;5.68;1.15;;;;;;;;;;4713109;30;20056;-77
2023/02/05 10:54:27;;;;;;;8.07;1.63;;;;;;;;;;4728521;30;20056;-77
2023/02/05 10:56:58;;;;;;;5.47;1.50;;;;;;;;;;4728584;30;20064;-76
2023/02/05 10:59:35;;;;;;;7.25;1.30;;;;;;;;;;4729023;30;20053;-77
2023/02/05 11:02:08;;;;;;;6.47;1.13;;;;;;;;;;4729340;30;20075;-77
2023/02/05 11:04:47;;;;;;;2.78;1.17;;;;;;;;;;4728381;30;20521;-75
2023/02/05 11:07:37;;;;;;;9.65;1.08;;;;;;;;;;4728811;30;20064;-76
2023/02/05 11:10:25;;;;;;;5.82;1.27;;;;;;;;;;4712955;30;20540;-76
2023/02/05 11:13:17;;;;;;;8.55;1.50;;;;;;;;;;4729135;30;20061;-77
2023/02/05 11:16:09;;;;;;;6.97;1.23;;;;;;;;;;4731983;30;20060;-77
2023/02/05 11:18:45;;;;;;;10.88;1.52;;;;;;;;;;4731759;30;20536;-78
2023/02/05 11:21:15;;;;;;;3.33;1.10;;;;;;;;;;4731595;30;20061;-78
2023/02/05 11:23:56;;;;;;;3.45;1.27;;;;;;;;;;4731662;30;20067;-77
2023/02/05 11:26:27;;;;;;;3.95;1.13;;;;;;;;;;4731935;30;20053;-75
2023/02/05 11:29:19;;;;;;;3.20;1.13;;;;;;;;;;4715557;30;20061;-75
2023/02/05 11:31:49;;;;;;;5.28;1.27;;;;;;;;;;4731417;30;20844;-76
2023/02/05 11:34:19;;;;;;;2.38;1.10;;;;;;;;;;4731610;30;20040;-76
2023/02/05 11:36:54;;;;;;;7.78;1.38;;;;;;;;;;4715448;30;20057;-76
2023/02/05 11:39:27;;;;;;;3.22;1.23;;;;;;;;;;4731430;30;20071;-77
2023/02/05 11:42:15;;;;;;;7.70;1.38;;;;;;;;;;4732037;30;20052;-76
2023/02/05 11:44:58;;;;;;;1.73;0.90;;;;;;;;;;4715553;30;20059;-76
2023/02/05 11:47:39;;;;;;;4.90;1.10;;;;;;;;;;4731705;30;20060;-78
2023/02/05 11:50:25;;;;;;;6.03;1.13;;;;;;;;;;4716323;30;20057;-77
2023/02/05 11:53:08;;;;;;;6.00;1.15;;;;;;;;;;4730737;30;20060;-77
2023/02/05 11:55:39;;;;;;;3.70;1.05;;;;;;;;;;4731034;30;20056;-78
2023/02/05 11:58:21;;;;;;;4.68;1.08;;;;;;;;;;4715652;30;20056;-80
2023/02/05 12:01:20;;;;;;;4.15;1.02;;;;;;;;;;4730963;30;20060;-76
2023/02/05 12:04:20;;;;;;;4.85;0.95;;;;;;;;;;4730904;30;20061;-75
2023/02/05 12:06:58;;;;;;;4.25;1.10;;;;;;;;;;4730992;30;20063;-76
2023/02/05 12:09:28;;;;;;;3.83;1.00;;;;;;;;;;4731098;30;20069;-76
2023/02/05 12:12:20;;;;;;;8.27;1.23;;;;;;;;;;4715548;30;20224;-77
2023/02/05 12:15:21;;;;;;;4.72;1.10;;;;;;;;;;4731066;30;20056;-78
2023/02/05 12:17:57;;;;;;;4.10;1.10;;;;;;;;;;4730811;30;20071;-76
2023/02/05 12:20:36;;;;;;;3.28;1.13;;;;;;;;;;4714334;30;20491;-78
2023/02/05 12:23:31;;;;;;;4.70;1.30;;;;;;;;;;4730652;30;20055;-77
2023/02/05 12:26:29;;;;;;;6.90;1.63;;;;;;;;;;4729525;30;20059;-75
2023/02/05 12:29:20;;;;;;;2.83;0.98;;;;;;;;;;4714158;30;20060;-79
2023/02/05 12:32:13;;;;;;;4.75;1.50;;;;;;;;;;4728953;30;20052;-74
2023/02/05 12:35:04;;;;;;;7.85;1.42;;;;;;;;;;4712818;30;20521;-75
2023/02/05 12:37:43;;;;;;;5.10;1.10;;;;;;;;;;4712903;30;20053;-76
2023/02/05 12:40:31;;;;;;;7.55;1.30;;;;;;;;;;4712990;30;20435;-77
2023/02/05 12:43:37;;;;;;;3.15;0.85;;;;;;;;;;4713053;30;20057;-78
2023/02/05 12:46:18;;;;;;;2.53;0.93;;;;;;;;;;4712707;30;20053;-74
2023/02/05 12:49:15;;;;;;;2.92;0.82;;;;;;;;;;4712718;30;20057;-74
2023/02/05 12:51:54;;;;;;;5.32;1.10;;;;;;;;;;4695926;30;20069;-75
2023/02/05 12:54:45;;;;;;;4.65;1.23;;;;;;;;;;4712940;30;20079;-74
2023/02/05 12:57:22;;;;;;;5.55;1.20;;;;;;;;;;4728202;30;20052;-74
2023/02/05 13:00:01;;;;;;;4.28;0.80;;;;;;;;;;4728715;30;20060;-75
2023/02/05 13:02:40;;;;;;;4.40;0.80;;;;;;;;;;4729470;30;20049;-76
2023/02/05 13:05:32;;;;;;;3.72;1.10;;;;;;;;;;4729962;30;20472;-77
2023/02/05 13:08:02;;;;;;;4.22;1.05;;;;;;;;;;4729818;30;20541;-81
2023/02/05 13:10:57;;;;;;;4.07;0.82;;;;;;;;;;4730332;30;20061;-77
2023/02/05 13:13:36;;;;;;;3.05;1.20;;;;;;;;;;4730667;30;20060;-76
2023/02/05 13:16:10;;;;;;;3.83;1.20;;;;;;;;;;4729452;30;20049;-80
2023/02/05 13:18:44;;;;;;;;;;;;;;;;;;4730380;30;20064;-79
2023/02/05 13:30:26;;;;;;;3.65;1.00;;;;;;;;;;4713891;30;20056;-74
2023/02/05 13:33:02;;;;;;;2.42;0.75;;;;;;;;;;4729476;30;20056;-77
2023/02/05 13:36:21;;;;;;;4.18;0.98;;;;;;;;;;4729334;30;20075;-75
2023/02/05 13:39:22;;;;;;;7.43;1.00;;;;;;;;;;4694903;30;20640;-76
2023/02/05 13:42:23;;;;;;;6.20;1.70;;;;;;;;;;4729426;30;20063;-77
2023/02/05 13:45:31;;;;;;;2.83;1.00;;;;;;;;;;4729414;30;20544;-77
2023/02/05 13:48:25;;;;;;;4.03;0.77;;;;;;;;;;4729473;30;20498;-77
2023/02/05 13:51:21;;;;;;;3.25;0.55;;;;;;;;;;4729591;30;20071;-76
2023/02/05 13:54:19;;;;;;;3.38;1.17;;;;;;;;;;4714594;30;20079;-82
2023/02/05 13:57:02;;;;;;;4.80;0.80;;;;;;;;;;4713612;30;20053;-75
2023/02/05 13:59:42;;;;;;;3.75;0.90;;;;;;;;;;4729045;30;20061;-75
2023/02/05 14:02:40;;;;;;;3.85;1.00;;;;;;;;;;4728943;30;20068;-76
2023/02/05 14:05:13;;;;;;;2.75;0.77;;;;;;;;;;4711678;30;20067;-76
2023/02/05 14:07:48;;;;;;;3.00;0.73;;;;;;;;;;4729537;30;20056;-77
2023/02/05 14:10:29;;;;;;;3.90;1.13;;;;;;;;;;4728172;30;20052;-76
2023/02/05 14:13:24;;;;;;;4.03;1.00;;;;;;;;;;4746265;30;20067;-76
2023/02/05 14:15:59;;;;;;;4.32;0.98;;;;;;;;;;4746407;30;20060;-75
2023/02/05 14:18:45;;;;;;;2.65;0.70;;;;;;;;;;4746420;30;20067;-78
2023/02/05 14:21:31;;;;;;;4.28;0.90;;;;;;;;;;4746282;30;20060;-75
2023/02/05 14:24:22;;;;;;;7.53;0.90;;;;;;;;;;4730124;30;20060;-77
2023/02/05 14:26:59;;;;;;;6.75;1.30;;;;;;;;;;4746368;30;20052;-76
2023/02/05 14:29:47;;;;;;;3.83;1.10;;;;;;;;;;4746851;30;20404;-75
2023/02/05 14:32:26;;;;;;;4.85;1.40;;;;;;;;;;4746321;30;20433;-77
2023/02/05 14:34:59;;;;;;;5.70;1.10;;;;;;;;;;4746072;30;20056;-74
2023/02/05 14:37:35;;;;;;;4.15;1.15;;;;;;;;;;4746559;30;20063;-76
2023/02/05 14:40:34;;;;;;;5.80;1.13;;;;;;;;;;4746077;30;20063;-77
2023/02/05 14:43:15;;;;;;;2.17;0.90;;;;;;;;;;4746011;30;20049;-75
2023/02/05 14:45:47;;;;;;;;;;;;;;;;;;4746207;30;20059;-73
2023/02/05 14:48:30;;;;;;;2.25;0.90;;;;;;;;;;4747402;30;19930;-74
2023/02/05 14:51:20;;;;;;;3.45;0.75;;;;;;;;;;4749693;30;20056;-75
2023/02/05 14:54:12;;;;;;;4.38;1.08;;;;;;;;;;4749478;30;20079;-76
2023/02/05 14:56:50;;;;;;;6.95;1.20;;;;;;;;;;4749512;30;20413;-75
2023/02/05 14:59:51;;;;;;;2.67;0.90;;;;;;;;;;4748943;30;20079;-75
2023/02/05 15:02:49;;;;;;;2.65;1.00;;;;;;;;;;4743208;30;20075;-78
2023/02/05 15:05:43;;;;;;;1.70;0.55;;;;;;;;;;4749547;30;20512;-75
2023/02/05 15:08:34;;;;;;;4.78;1.15;;;;;;;;;;4749123;30;20052;-76
2023/02/05 15:11:26;;;;;;;4.57;1.05;;;;;;;;;;4733018;30;20436;-76
2023/02/05 15:14:23;;;;;;;5.80;1.45;;;;;;;;;;4749509;30;20059;-77
2023/02/05 15:17:05;;;;;;;4.18;1.33;;;;;;;;;;4733087;30;20543;-80
2023/02/05 15:19:44;;;;;;;2.97;0.98;;;;;;;;;;4749788;30;20060;-77
2023/02/05 15:22:37;;;;;;;1.92;0.75;;;;;;;;;;4748263;30;20437;-74
2023/02/05 15:25:40;;;;;;;3.83;0.90;;;;;;;;;;4749581;30;20063;-77
2023/02/05 15:28:30;;;;;;;4.30;1.17;;;;;;;;;;4743377;30;20965;-77
2023/02/05 15:31:24;;;;;;;3.22;1.10;;;;;;;;;;4734007;30;20064;-78
2023/02/05 15:34:06;;;;;;;2.88;1.08;;;;;;;;;;4749315;30;20049;-76
2023/02/05 15:36:44;;;;;;;3.53;1.40;;;;;;;;;;4749449;30;20073;-78
2023/02/05 15:39:29;;;;;;;3.15;1.40;;;;;;;;;;4732093;30;20429;-79
2023/02/05 15:42:02;;;;;;;4.95;1.00;;;;;;;;;;4748572;30;20425;-78
2023/02/05 15:44:36;;;;;;;2.72;1.08;;;;;;;;;;4749319;30;20059;-80
2023/02/05 15:47:13;;;;;;;7.18;1.25;;;;;;;;;;4748886;30;20056;-79
2023/02/05 15:49:57;;;;;;;3.00;1.25;;;;;;;;;;4748988;30;20528;-76
2023/02/05 15:52:30;;;;;;;2.53;1.00;;;;;;;;;;4748774;30;20052;-77
2023/02/05 15:55:11;;;;;;;2.50;1.00;;;;;;;;;;4732504;30;20087;-77
2023/02/05 15:57:44;;;;;;;2.38;1.30;;;;;;;;;;4748202;30;20071;-79
2023/02/05 16:00:24;;;;;;;3.42;1.02;;;;;;;;;;4732083;30;20070;-78
2023/02/05 16:02:56;;;;;;;3.90;0.95;;;;;;;;;;4748202;30;21113;-77
2023/02/05 16:05:29;;;;;;;1.90;0.60;;;;;;;;;;4748145;30;20047;-77
2023/02/05 16:08:01;;;;;;;2.08;0.88;;;;;;;;;;4748403;30;20056;-75
2023/02/05 16:10:33;;;;;;;1.75;0.52;;;;;;;;;;4732325;30;20504;-75